createdAt,value
2022-11-18T00:00:32.491Z,98.33
2022-11-18T00:10:32.820Z,97.82
2022-11-18T00:20:32.877Z,98.19
2022-11-18T00:30:33.207Z,98.13
2022-11-18T00:40:33.236Z,98.24
2022-11-18T00:50:33.570Z,98.49
2022-11-18T01:00:33.673Z,98.13
2022-11-18T01:10:33.831Z,98.59
2022-11-18T01:20:33.866Z,99.05
2022-11-18T01:30:34.207Z,98.96
2022-11-18T01:40:34.268Z,99.16
2022-11-18T01:50:34.598Z,99.57
2022-11-18T02:00:34.619Z,99.88
2022-11-18T02:10:34.957Z,99.99
2022-11-18T02:20:34.999Z,99.99
2022-11-18T02:30:35.340Z,97.71
2022-11-18T02:40:35.366Z,91.80
2022-11-18T02:50:35.685Z,93.65
2022-11-18T03:00:35.709Z,93.08
2022-11-18T03:10:36.062Z,94.58
2022-11-18T03:20:36.089Z,90.88
2022-11-18T03:30:57.475Z,89.19
2022-11-18T03:40:36.511Z,88.64
2022-11-18T03:50:36.726Z,92.63
2022-11-18T04:00:36.944Z,92.32
2022-11-18T04:10:39.202Z,95.03
2022-11-18T04:20:37.428Z,95.14
2022-11-18T04:30:37.731Z,94.62
2022-11-18T04:40:37.766Z,95.08
2022-11-18T04:50:37.996Z,93.18
2022-11-18T05:00:38.227Z,92.97
2022-11-18T05:10:38.472Z,92.16
2022-11-18T05:20:41.583Z,91.02
2022-11-18T05:30:38.948Z,90.88
2022-11-18T05:40:38.972Z,91.85
2022-11-18T05:50:39.206Z,88.51
2022-11-18T06:00:39.544Z,91.13
2022-11-18T06:10:40.603Z,92.05
2022-11-18T06:20:39.852Z,91.60
2022-11-18T06:30:40.151Z,94.36
2022-11-18T06:40:40.201Z,94.46
2022-11-18T06:50:41.453Z,94.87
2022-11-18T07:00:40.627Z,96.11
2022-11-18T07:10:43.969Z,96.42
2022-11-18T07:20:40.791Z,96.52
2022-11-18T07:30:41.062Z,96.93
2022-11-18T07:40:41.289Z,91.33
2022-11-18T07:50:46.850Z,95.75
2022-11-18T08:00:42.703Z,96.31
2022-11-18T08:10:42.003Z,94.01
2022-11-18T08:20:42.039Z,92.52
2022-11-18T08:30:44.251Z,94.33
2022-11-18T08:40:42.485Z,91.60
2022-11-18T08:50:42.746Z,94.12
2022-11-18T09:00:42.973Z,92.23
2022-11-18T09:10:43.323Z,89.21
2022-11-18T09:20:43.352Z,91.27
2022-11-18T09:30:44.690Z,88.12
2022-11-18T09:40:43.713Z,91.31
2022-11-18T09:50:51.350Z,88.80
2022-11-18T10:00:45.027Z,83.42
2022-11-18T10:10:44.272Z,82.05
2022-11-18T10:20:44.487Z,84.53
2022-11-18T10:30:44.732Z,84.64
2022-11-18T10:40:44.961Z,82.49
2022-11-18T10:50:47.279Z,80.47
2022-11-18T11:00:46.339Z,83.49
2022-11-18T11:10:51.337Z,85.03
2022-11-18T11:20:46.739Z,89.27
2022-11-18T11:30:46.669Z,83.45
2022-11-18T11:40:46.193Z,82.01
2022-11-18T11:50:54.741Z,86.38
2022-11-18T12:00:47.574Z,83.82
2022-11-18T12:10:46.863Z,80.71
2022-11-18T12:20:46.883Z,76.37
2022-11-18T12:30:47.128Z,76.47
2022-11-18T12:40:52.271Z,76.17
2022-11-18T12:50:48.439Z,71.83
2022-11-18T13:00:49.873Z,72.17
2022-11-18T13:10:51.733Z,77.15
2022-11-18T13:20:51.614Z,75.65
2022-11-18T13:30:49.472Z,77.64
2022-11-18T13:40:48.693Z,75.48
2022-11-18T13:50:49.142Z,76.81
2022-11-18T14:00:49.190Z,74.11
2022-11-18T14:10:52.576Z,75.99
2022-11-18T14:20:49.424Z,81.57
2022-11-18T14:30:49.770Z,81.36
2022-11-18T14:40:49.791Z,82.18
2022-11-18T14:50:51.060Z,79.72
2022-11-18T15:00:50.321Z,84.84
2022-11-18T15:10:50.721Z,86.15
2022-11-18T15:20:50.757Z,83.18
2022-11-18T15:30:51.178Z,84.90
2022-11-18T15:40:51.204Z,85.14
2022-11-18T15:50:54.252Z,86.89
2022-11-18T16:00:51.693Z,90.16
2022-11-18T16:10:51.828Z,92.11
2022-11-18T16:20:51.856Z,90.67
2022-11-18T16:30:52.105Z,89.58
2022-11-18T16:40:52.320Z,90.03
2022-11-18T16:50:52.675Z,87.98
2022-11-18T17:01:17.669Z,87.77
2022-11-18T17:10:54.070Z,90.45
2022-11-18T17:20:53.102Z,91.06
2022-11-18T17:30:53.157Z,84.61
2022-11-18T17:40:57.937Z,89.38
2022-11-18T17:50:53.653Z,87.63
2022-11-18T18:00:53.801Z,88.56
2022-11-18T18:10:53.988Z,87.12
2022-11-18T18:20:54.023Z,84.03
2022-11-18T18:30:54.197Z,82.69
2022-11-18T18:40:54.398Z,86.33
2022-11-18T18:50:54.523Z,83.97
2022-11-18T19:00:58.293Z,90.01
2022-11-18T19:10:55.040Z,92.12
2022-11-18T19:20:58.642Z,87.71
2022-11-18T19:30:55.479Z,91.19
2022-11-18T19:40:55.745Z,90.47
2022-11-18T19:50:59.674Z,85.24
2022-11-18T20:00:55.986Z,86.16
2022-11-18T20:10:56.180Z,87.13
2022-11-18T20:20:56.127Z,89.19
2022-11-18T20:30:56.333Z,88.47
2022-11-18T20:40:56.534Z,87.99
2022-11-18T20:50:56.803Z,85.59
2022-11-18T21:01:01.463Z,88.14
2022-11-18T21:10:57.927Z,86.76
2022-11-18T21:20:57.261Z,87.07
2022-11-18T21:30:57.294Z,92.25
2022-11-18T21:40:57.635Z,94.97
2022-11-18T21:50:57.671Z,95.14
2022-11-18T22:00:59.068Z,94.93
2022-11-18T22:10:58.096Z,93.65
2022-11-18T22:20:58.380Z,94.99
2022-11-18T22:30:58.505Z,95.92
2022-11-18T22:40:58.602Z,95.76
2022-11-18T22:50:58.624Z,96.37
2022-11-18T23:00:59.000Z,96.37
2022-11-18T23:10:59.037Z,97.66
2022-11-18T23:20:59.277Z,96.52
2022-11-18T23:30:59.512Z,94.97
2022-11-18T23:40:59.952Z,94.25
2022-11-18T23:50:59.968Z,92.40
